Time;durP1;ratioP1;P1;durP2;ratioP2;P2;SDS_P1;SDS_P2;PMS_P1;PMS_P2;Temp;Humidity;BMP_temperature;BMP_pressure;BME280_temperature;BME280_humidity;BME280_pressure;Samples;Min_cycle;Max_cycle;Signal;HPM_P1;HPM_P2
2021/11/10 00:00:18;;;;;;;;;32.00;28.50;;;;;10.09;61.52;101757.50;5060497;28;46185;-86
2021/11/10 00:02:44;;;;;;;;;38.25;35.75;;;;;10.00;61.64;101739.63;5070556;28;46497;-85
2021/11/10 00:05:11;;;;;;;;;31.75;29.50;;;;;10.13;61.52;101753.78;5069981;28;45918;-82
2021/11/10 00:07:36;;;;;;;;;27.75;25.75;;;;;10.07;61.49;101733.16;5050811;28;45785;-83
2021/11/10 00:10:04;;;;;;;;;32.25;29.50;;;;;9.91;61.43;101701.69;5062618;28;45850;-83
2021/11/10 00:12:30;;;;;;;;;34.00;28.50;;;;;10.00;61.39;101727.38;5073740;28;46675;-86
2021/11/10 00:14:55;;;;;;;;;34.00;31.00;;;;;10.05;61.52;101732.38;5073936;28;45606;-84
2021/11/10 00:17:20;;;;;;;;;31.00;29.00;;;;;9.96;61.56;101717.16;5069839;28;45759;-85
2021/11/10 00:19:46;;;;;;;;;32.75;28.75;;;;;9.80;61.65;101706.59;5044100;28;45614;-84
2021/11/10 00:22:11;;;;;;;;;31.25;29.00;;;;;9.98;61.72;101734.47;5060640;28;46646;-84
2021/11/10 00:24:37;;;;;;;;;33.75;30.00;;;;;9.90;61.79;101714.84;5073063;28;45729;-82
2021/11/10 00:27:02;;;;;;;;;38.25;34.50;;;;;9.99;61.78;101727.44;5067607;28;45746;-84
2021/11/10 00:29:28;;;;;;;;;37.50;32.50;;;;;9.89;61.55;101700.91;5046535;28;45665;-84
2021/11/10 00:31:54;;;;;;;;;31.50;27.25;;;;;9.81;61.91;101676.91;5055784;28;45608;-83
2021/11/10 00:34:20;;;;;;;;;35.50;31.50;;;;;9.76;61.74;101678.91;5052431;28;47513;-85
2021/11/10 00:36:46;;;;;;;;;37.00;32.00;;;;;9.56;61.76;101671.19;5062609;28;45570;-85
2021/11/10 00:39:12;;;;;;;;;32.75;29.25;;;;;9.72;61.84;101703.50;5055896;28;45753;-84
2021/11/10 00:41:38;;;;;;;;;37.25;32.00;;;;;9.65;62.13;101710.00;5055383;28;47469;-83
2021/11/10 00:44:04;;;;;;;;;30.50;26.00;;;;;9.80;62.10;101721.47;5050844;28;46581;-85
2021/11/10 00:46:30;;;;;;;;;39.25;30.00;;;;;9.79;62.19;101706.66;5058103;28;45751;-84
2021/11/10 00:48:56;;;;;;;;;31.25;27.75;;;;;9.79;61.92;101710.13;5052570;28;46072;-81
2021/11/10 00:51:22;;;;;;;;;30.75;27.25;;;;;9.61;62.29;101674.41;5058232;28;46189;-85
2021/11/10 00:53:48;;;;;;;;;30.25;26.25;;;;;9.82;62.09;101698.69;5044682;28;47332;-83
2021/11/10 00:56:13;;;;;;;;;35.75;27.00;;;;;9.64;61.73;101674.28;5063156;28;46171;-85
2021/11/10 00:58:39;;;;;;;;;28.25;25.25;;;;;9.70;62.12;101689.66;5051294;28;45926;-84
2021/11/10 01:01:04;;;;;;;;;30.25;25.75;;;;;9.72;61.79;101700.06;5045695;28;48488;-83
2021/11/10 01:03:30;;;;;;;;;28.75;26.00;;;;;9.49;62.16;101662.81;5056055;28;45645;-84
2021/11/10 01:05:57;;;;;;;;;35.75;26.75;;;;;9.54;62.50;101670.44;5061707;28;45914;-82
2021/11/10 01:08:23;;;;;;;;;32.50;29.25;;;;;9.23;62.59;101640.53;5048774;28;45892;-84
2021/11/10 01:10:49;;;;;;;;;34.50;29.50;;;;;9.42;62.72;101671.03;5070872;28;45718;-84
2021/11/10 01:13:14;;;;;;;;;28.75;26.50;;;;;9.25;63.10;101645.69;5056352;28;45731;-86
2021/11/10 01:15:42;;;;;;;;;30.50;26.75;;;;;9.23;63.26;101650.19;5058117;28;45732;-83
2021/11/10 01:18:08;;;;;;;;;33.50;24.75;;;;;9.27;63.05;101656.94;5067113;28;45666;-84
2021/11/10 01:20:34;;;;;;;;;25.50;25.25;;;;;9.11;63.59;101645.53;5054302;28;48353;-84
2021/11/10 01:22:59;;;;;;;;;25.50;23.25;;;;;9.15;63.75;101655.78;5044185;28;47267;-84
2021/11/10 01:25:25;;;;;;;;;27.75;25.00;;;;;9.16;63.32;101656.63;5063289;28;45520;-82
2021/11/10 01:27:50;;;;;;;;;32.75;28.00;;;;;9.15;63.69;101671.44;5055069;28;45776;-85
2021/11/10 01:30:16;;;;;;;;;27.00;24.00;;;;;8.98;63.85;101647.03;5059009;28;48437;-84
2021/11/10 01:32:43;;;;;;;;;29.00;28.00;;;;;9.03;63.92;101655.50;5036812;28;48308;-83
2021/11/10 01:35:09;;;;;;;;;18.25;14.50;;;;;9.12;63.99;101681.22;5039543;28;45804;-87
2021/11/10 01:37:35;;;;;;;;;33.25;27.50;;;;;9.12;64.21;101678.59;5047143;28;45760;-87
2021/11/10 01:40:02;;;;;;;;;32.50;28.25;;;;;8.93;64.17;101639.41;5066945;28;45651;-86
2021/11/10 01:42:30;;;;;;;;;33.50;27.75;;;;;9.09;64.26;101683.97;5055860;28;46192;-85
2021/11/10 01:44:57;;;;;;;;;34.00;28.75;;;;;9.02;64.45;101661.63;5048859;28;45900;-86
2021/11/10 01:47:22;;;;;;;;;33.00;25.00;;;;;8.93;64.05;101649.88;5058511;28;45794;-86
2021/11/10 01:49:48;;;;;;;;;24.00;21.75;;;;;9.05;64.14;101664.97;5063568;28;46229;-85
2021/11/10 01:52:14;;;;;;;;;30.75;28.00;;;;;9.00;64.17;101656.50;5062981;28;45685;-86
2021/11/10 01:54:41;;;;;;;;;30.50;26.00;;;;;8.95;64.07;101641.97;5061298;28;45844;-87
2021/11/10 01:57:09;;;;;;;;;30.75;25.50;;;;;8.97;64.27;101659.25;5062523;28;45521;-86
2021/11/10 01:59:35;;;;;;;;;18.75;11.75;;;;;8.90;64.39;101657.00;5021579;28;47721;-85
2021/11/10 02:02:04;;;;;;;;;24.25;23.50;;;;;9.05;64.31;101669.34;5046574;28;47349;-83
2021/11/10 02:04:32;;;;;;;;;28.75;24.75;;;;;9.05;64.27;101672.81;5039144;28;45724;-84
2021/11/10 02:07:01;;;;;;;;;30.50;25.50;;;;;9.08;64.44;101670.03;5048068;28;45645;-84
2021/11/10 02:09:27;;;;;;;;;23.75;22.25;;;;;8.90;64.43;101641.34;5060165;28;45839;-84
2021/11/10 02:11:54;;;;;;;;;27.25;23.75;;;;;9.12;64.14;101676.00;5043668;28;47303;-83
2021/11/10 02:14:21;;;;;;;;;27.50;24.75;;;;;8.91;63.90;101630.78;5038124;28;45976;-84
2021/11/10 02:16:47;;;;;;;;;30.75;26.50;;;;;9.17;63.94;101658.31;5054202;28;45685;-84
2021/11/10 02:19:15;;;;;;;;;32.25;26.75;;;;;9.12;63.99;101644.63;5043586;28;47424;-82
2021/11/10 02:21:51;;;;;;;;;27.75;25.25;;;;;9.00;63.91;101622.53;5053727;28;46197;-85
2021/11/10 02:24:18;;;;;;;;;26.00;23.25;;;;;9.14;64.10;101653.22;5041706;28;46459;-85
2021/11/10 02:26:45;;;;;;;;;29.25;25.75;;;;;8.74;64.06;101599.41;5053814;28;45665;-83
2021/11/10 02:29:20;;;;;;;;;29.75;25.75;;;;;8.84;64.29;101619.81;5061018;28;46604;-86
2021/11/10 02:31:47;;;;;;;;;29.50;26.50;;;;;9.01;64.55;101652.13;5043768;28;48223;-85
2021/11/10 02:34:13;;;;;;;;;27.50;26.00;;;;;8.90;64.55;101634.34;5039944;28;45936;-85
2021/11/10 02:36:38;;;;;;;;;31.00;25.75;;;;;8.86;64.56;101630.16;5054233;28;45783;-84
2021/11/10 02:39:09;;;;;;;;;29.50;24.25;;;;;8.84;64.66;101619.81;5053757;28;46230;-85
2021/11/10 02:41:36;;;;;;;;;28.25;24.75;;;;;8.82;64.69;101603.34;5040799;28;48155;-83
2021/11/10 02:44:05;;;;;;;;;32.25;25.25;;;;;8.97;64.64;101635.72;5053778;28;46289;-84
2021/11/10 02:46:34;;;;;;;;;27.25;24.00;;;;;8.87;64.73;101610.09;5042191;28;46478;-86
2021/11/10 02:49:00;;;;;;;;;31.25;23.75;;;;;8.57;64.71;101568.88;5036482;28;48719;-87
2021/11/10 02:51:25;;;;;;;;;27.75;25.50;;;;;8.52;64.75;101580.44;5064174;28;46572;-84
2021/11/10 02:53:51;;;;;;;;;25.00;24.25;;;;;8.72;64.98;101627.38;5065111;28;45702;-83
2021/11/10 02:56:17;;;;;;;;;28.50;25.25;;;;;8.76;64.78;101627.16;5065188;28;45972;-84
2021/11/10 02:58:42;;;;;;;;;30.75;28.50;;;;;8.45;65.00;101581.66;5068198;28;47273;-84
2021/11/10 03:01:08;;;;;;;;;36.25;29.25;;;;;8.61;65.22;101619.19;5045313;28;47398;-87
2021/11/10 03:03:34;;;;;;;;;29.25;23.50;;;;;8.50;65.47;101621.44;5050261;28;45701;-84
2021/11/10 03:06:00;;;;;;;;;28.50;25.75;;;;;8.40;65.62;101610.59;5035119;28;46028;-85
2021/11/10 03:08:25;;;;;;;;;30.00;26.75;;;;;8.09;65.63;101564.13;5042328;28;47530;-84
2021/11/10 03:10:52;;;;;;;;;24.75;22.25;;;;;8.02;65.54;101560.94;5057473;28;47015;-84
2021/11/10 03:13:18;;;;;;;;;29.75;27.00;;;;;8.18;65.91;101586.34;5035026;28;45945;-85
2021/11/10 03:15:45;;;;;;;;;30.75;24.00;;;;;8.07;65.71;101552.91;5069136;28;45759;-82
2021/11/10 03:18:11;;;;;;;;;28.25;24.50;;;;;8.44;65.60;101604.28;5057706;28;45775;-83
2021/11/10 03:20:37;;;;;;;;;25.50;25.25;;;;;8.30;65.73;101589.28;5043207;28;48246;-83
2021/11/10 03:23:04;;;;;;;;;24.75;22.00;;;;;8.28;65.52;101572.78;5039784;28;45540;-87
2021/11/10 03:25:30;;;;;;;;;27.50;22.00;;;;;8.58;65.72;101633.25;5059098;28;45709;-85
2021/11/10 03:27:56;;;;;;;;;21.50;18.50;;;;;8.62;65.50;101629.56;5045843;28;47313;-86
2021/11/10 03:30:21;;;;;;;;;18.75;15.50;;;;;8.26;65.54;101556.34;5064218;28;46579;-88
2021/11/10 03:32:47;;;;;;;;;24.00;21.00;;;;;8.51;65.34;101594.41;5056083;28;45579;-88
2021/11/10 03:35:13;;;;;;;;;24.50;22.00;;;;;8.74;65.25;101622.94;5055286;28;45587;-85
2021/11/10 03:37:40;;;;;;;;;27.00;23.75;;;;;8.75;65.14;101627.22;5043131;28;47560;-83
2021/11/10 03:40:07;;;;;;;;;23.25;20.25;;;;;8.78;65.28;101646.22;5054896;28;46175;-84
2021/11/10 03:42:33;;;;;;;;;28.25;25.00;;;;;8.63;65.04;101614.75;5067453;28;45633;-84
2021/11/10 03:44:59;;;;;;;;;31.50;27.00;;;;;8.63;65.07;101588.63;5061878;28;45869;-84
2021/11/10 03:47:25;;;;;;;;;27.50;25.00;;;;;8.77;65.41;101607.09;5059197;28;47634;-84
2021/11/10 03:49:51;;;;;;;;;27.25;23.00;;;;;8.88;65.08;101624.88;5050200;28;46041;-85
2021/11/10 03:52:17;;;;;;;;;28.50;24.75;;;;;8.73;64.98;101610.78;5058335;28;45641;-85
2021/11/10 03:54:43;;;;;;;;;35.00;32.00;;;;;8.48;65.00;101563.22;5055831;28;45728;-82
2021/11/10 03:57:08;;;;;;;;;9.50;6.50;;;;;8.52;64.80;101576.06;5056316;28;45542;-83
2021/11/10 03:59:34;;;;;;;;;37.50;32.25;;;;;8.62;65.17;101603.44;5057193;28;46497;-84
2021/11/10 04:02:00;;;;;;;;;35.50;34.00;;;;;8.87;64.95;101637.09;5068951;28;46003;-84
2021/11/10 04:04:25;;;;;;;;;39.25;36.25;;;;;8.43;64.82;101569.50;5043264;28;46036;-84
2021/11/10 04:06:51;;;;;;;;;40.00;34.75;;;;;8.83;65.01;101653.84;5066057;28;45673;-85
2021/11/10 04:09:17;;;;;;;;;41.75;33.50;;;;;8.74;64.93;101655.13;5061893;28;46073;-84
2021/11/10 04:11:43;;;;;;;;;34.75;29.00;;;;;8.55;65.14;101642.97;5047324;28;45782;-83
2021/11/10 04:14:09;;;;;;;;;40.00;34.50;;;;;8.59;64.89;101679.31;5061509;28;45881;-83
2021/11/10 04:16:34;;;;;;;;;35.00;31.50;;;;;8.63;64.72;101691.34;5044965;28;48137;-84
2021/11/10 04:19:03;;;;;;;;;42.25;37.25;;;;;8.61;64.93;101669.66;5057204;28;46363;-83
2021/11/10 04:24:42;;;;;;;;;35.00;31.75;;;;;7.85;64.91;101562.59;4940492;28;45864;-87
2021/11/10 04:27:07;;;;;;;;;41.50;32.75;;;;;8.60;64.91;101696.69;4954016;28;46055;-84
2021/11/10 04:29:33;;;;;;;;;39.50;32.00;;;;;8.21;64.84;101625.34;4935557;28;48254;-81
2021/11/10 04:32:00;;;;;;;;;37.75;29.75;;;;;8.37;64.98;101639.44;4981641;28;45831;-82
2021/11/10 04:34:25;;;;;;;;;40.25;35.00;;;;;8.46;65.15;101657.31;4956654;28;45734;-83
2021/11/10 04:36:50;;;;;;;;;37.00;33.25;;;;;8.42;65.08;101648.75;4941786;28;48728;-83
2021/11/10 04:39:16;;;;;;;;;40.50;31.75;;;;;8.54;64.99;101660.41;4947444;28;48346;-84
2021/11/10 04:41:41;;;;;;;;;35.25;32.75;;;;;8.22;64.89;101590.50;4965474;28;45668;-85
2021/11/10 04:44:07;;;;;;;;;39.50;33.25;;;;;8.64;64.91;101679.97;4963509;28;45728;-85
2021/11/10 04:46:35;;;;;;;;;39.50;32.25;;;;;8.25;64.68;101614.72;4986968;28;45706;-83
2021/11/10 04:49:01;;;;;;;;;39.50;32.25;;;;;8.41;64.80;101641.00;4963565;28;46078;-82
2021/11/10 04:51:27;;;;;;;;;40.00;32.50;;;;;8.56;64.63;101669.03;4982048;28;45777;-83
2021/11/10 04:53:54;;;;;;;;;44.50;31.50;;;;;8.53;64.87;101656.09;4968302;28;45610;-82
2021/11/10 04:56:22;;;;;;;;;40.00;34.00;;;;;8.61;64.98;101666.19;4960358;28;47482;-81
2021/11/10 04:58:47;;;;;;;;;40.00;32.25;;;;;8.56;64.82;101671.63;4969954;28;45745;-84
2021/11/10 05:01:18;;;;;;;;;42.00;34.75;;;;;8.33;64.82;101633.50;5017600;28;45631;-80
2021/11/10 05:03:44;;;;;;;;;34.00;31.75;;;;;8.50;64.99;101650.16;5084351;28;45652;-82
2021/11/10 05:06:35;;;;;;;;;37.75;34.00;;;;;7.79;64.85;101527.19;5079126;27;45464;-84
2021/11/10 05:09:01;;;;;;;;;38.25;33.25;;;;;7.92;64.69;101557.06;4952712;28;45572;-84
2021/11/10 05:11:26;;;;;;;;;32.75;29.25;;;;;8.35;65.03;101626.47;4938299;28;46565;-81
2021/11/10 05:13:52;;;;;;;;;35.75;32.25;;;;;8.27;65.04;101601.56;4955463;28;45406;-84
2021/11/10 05:16:18;;;;;;;;;38.50;31.50;;;;;8.51;65.06;101638.81;4954541;28;45581;-84
2021/11/10 05:18:47;;;;;;;;;34.00;32.00;;;;;8.48;65.00;101631.09;4951263;28;46367;-83
2021/11/10 05:21:13;;;;;;;;;39.75;32.25;;;;;8.29;65.25;101589.31;4949981;28;45743;-83
2021/11/10 05:23:39;;;;;;;;;35.00;29.75;;;;;8.29;65.03;101603.22;4952011;28;45782;-84
2021/11/10 05:26:04;;;;;;;;;37.25;30.75;;;;;8.32;65.22;101616.16;4942602;28;46315;-83
2021/11/10 05:28:30;;;;;;;;;38.00;34.00;;;;;8.14;65.46;101585.66;4923877;28;48460;-83
2021/11/10 05:30:57;;;;;;;;;36.25;33.00;;;;;8.20;65.40;101614.09;4924479;28;45586;-86
2021/11/10 05:33:22;;;;;;;;;39.25;34.25;;;;;7.69;65.45;101525.91;4922731;28;45899;-86
2021/11/10 05:35:48;;;;;;;;;41.00;31.25;;;;;8.04;65.57;101599.16;4924481;28;47155;-87
2021/11/10 05:38:13;;;;;;;;;31.00;29.25;;;;;7.99;66.03;101622.84;4925027;28;47100;-84
2021/11/10 05:40:39;;;;;;;;;38.50;33.75;;;;;7.51;65.95;101552.78;4956407;28;45698;-83
2021/11/10 05:43:06;;;;;;;;;39.25;32.75;;;;;7.59;66.30;101587.22;4987221;28;45832;-84
2021/11/10 05:45:33;;;;;;;;;36.50;33.50;;;;;7.74;66.35;101617.00;4993413;28;46715;-86
2021/11/10 05:47:58;;;;;;;;;34.75;31.50;;;;;7.51;66.80;101597.13;5046018;28;47326;-86
2021/11/10 05:50:24;;;;;;;;;46.25;36.25;;;;;7.49;67.11;101605.03;5067705;28;45578;-86
2021/11/10 05:52:50;;;;;;;;;46.00;36.25;;;;;7.12;67.40;101561.41;5037308;28;45984;-86
2021/11/10 05:55:16;;;;;;;;;38.50;32.25;;;;;6.79;67.64;101513.31;5064336;28;45700;-84
2021/11/10 05:57:42;;;;;;;;;37.50;34.00;;;;;7.21;68.04;101596.66;5039428;28;47233;-86
2021/11/10 06:00:11;;;;;;;;;35.50;32.00;;;;;7.20;68.03;101607.97;5055186;28;45702;-87
2021/11/10 06:02:40;;;;;;;;;41.75;33.00;;;;;6.96;68.16;101586.41;5049639;28;45815;-86
2021/11/10 06:05:07;;;;;;;;;32.00;30.25;;;;;6.99;68.17;101586.25;5035308;28;48676;-87
2021/11/10 06:07:36;;;;;;;;;43.75;36.00;;;;;6.93;68.36;101570.03;5049972;28;48043;-85
2021/11/10 06:10:04;;;;;;;;;38.50;32.75;;;;;7.00;68.24;101579.28;5040740;28;45849;-86
2021/11/10 06:12:29;;;;;;;;;36.25;29.50;;;;;7.03;68.39;101605.22;5054225;28;45806;-85
2021/11/10 06:14:55;;;;;;;;;33.50;29.75;;;;;7.07;68.42;101619.84;5044364;28;47786;-87
2021/11/10 06:17:20;;;;;;;;;38.25;31.25;;;;;7.29;68.48;101664.94;5050513;28;48028;-87
2021/11/10 06:19:46;;;;;;;;;33.25;29.75;;;;;6.89;68.82;101607.53;5063884;28;45528;-87
2021/11/10 06:22:11;;;;;;;;;32.50;26.75;;;;;7.23;68.46;101652.19;5061510;28;45802;-87
2021/11/10 06:24:37;;;;;;;;;33.50;29.75;;;;;7.06;68.46;101628.56;5043651;28;48622;-85
2021/11/10 06:27:03;;;;;;;;;32.00;29.00;;;;;7.41;68.09;101672.25;5041573;28;47280;-87
2021/11/10 06:29:28;;;;;;;;;32.00;28.00;;;;;7.18;68.67;101624.59;5045171;28;47106;-85
2021/11/10 06:31:54;;;;;;;;;35.50;28.75;;;;;7.47;68.52;101676.38;5040322;28;45710;-85
2021/11/10 06:34:21;;;;;;;;;32.25;27.75;;;;;7.47;68.44;101681.59;5039237;28;48218;-86
2021/11/10 06:36:47;;;;;;;;;24.75;21.50;;;;;7.44;68.32;101685.19;5054568;28;46570;-86
2021/11/10 06:39:12;;;;;;;;;40.00;29.75;;;;;6.97;68.54;101610.66;5049441;28;45939;-86
2021/11/10 06:41:38;;;;;;;;;33.25;29.00;;;;;7.18;68.40;101641.91;5044248;28;46624;-87
2021/11/10 06:44:04;;;;;;;;;39.75;29.75;;;;;7.50;68.21;101697.94;5043060;28;48478;-87
2021/11/10 06:46:30;;;;;;;;;28.25;25.00;;;;;7.40;68.19;101675.78;5039713;28;47444;-85
2021/11/10 06:48:56;;;;;;;;;33.00;29.25;;;;;7.12;68.09;101634.38;5040932;28;45628;-86
2021/11/10 06:51:21;;;;;;;;;31.75;29.75;;;;;7.40;68.06;101694.03;5045922;28;46011;-86
2021/11/10 06:53:48;;;;;;;;;34.00;28.75;;;;;7.61;68.42;101730.59;5049835;28;48455;-87
2021/11/10 06:56:13;;;;;;;;;39.25;29.00;;;;;7.62;68.36;101727.03;5069603;28;48625;-86
2021/11/10 06:58:39;;;;;;;;;32.25;28.50;;;;;7.74;67.89;101748.25;5059540;28;45736;-89
2021/11/10 07:01:04;;;;;;;;;33.00;30.50;;;;;7.77;67.84;101753.38;5062110;28;45725;-86
2021/11/10 07:03:30;;;;;;;;;33.25;30.25;;;;;7.39;67.96;101694.09;5064312;28;45591;-88
2021/11/10 07:05:56;;;;;;;;;36.75;34.00;;;;;7.26;67.93;101670.28;5063807;28;46951;-82
2021/11/10 07:08:21;;;;;;;;;35.00;33.75;;;;;7.58;67.87;101710.69;5075431;28;45738;-84
2021/11/10 07:10:47;;;;;;;;;44.75;38.50;;;;;7.39;67.78;101676.72;5065520;28;45523;-82
2021/11/10 07:13:15;;;;;;;;;45.00;39.50;;;;;7.14;67.83;101635.13;5063037;28;45756;-83
2021/11/10 07:15:41;;;;;;;;;44.00;37.75;;;;;7.58;67.81;101719.34;5071271;28;46101;-85
2021/11/10 07:18:06;;;;;;;;;40.75;35.75;;;;;7.73;67.53;101730.06;5054152;28;45875;-83
2021/11/10 07:20:32;;;;;;;;;41.25;38.00;;;;;7.77;67.70;101726.44;5062789;28;46586;-82
2021/11/10 07:23:01;;;;;;;;;42.75;36.75;;;;;7.64;68.14;101700.00;5058183;28;45585;-83
2021/11/10 07:25:28;;;;;;;;;44.50;39.00;;;;;7.82;68.01;101730.56;5068449;28;46150;-82
2021/11/10 07:27:54;;;;;;;;;42.25;38.75;;;;;7.78;67.76;101728.09;5045601;28;45583;-84
2021/11/10 07:30:20;;;;;;;;;46.75;39.50;;;;;7.65;67.59;101706.91;5041093;28;45827;-83
2021/11/10 07:32:46;;;;;;;;;48.75;39.25;;;;;7.83;67.38;101734.84;5060515;28;46852;-85
2021/11/10 07:35:12;;;;;;;;;43.50;36.75;;;;;7.86;67.23;101734.72;5054769;28;46429;-82
2021/11/10 07:37:38;;;;;;;;;40.25;36.00;;;;;7.73;67.35;101717.88;5056121;28;45743;-84
2021/11/10 07:40:05;;;;;;;;;41.50;37.75;;;;;7.79;67.07;101722.84;5055352;28;45705;-85
2021/11/10 07:42:32;;;;;;;;;44.25;38.75;;;;;7.81;67.25;101726.25;5054692;28;46595;-83
2021/11/10 07:45:06;;;;;;;;;43.75;39.00;;;;;7.75;67.32;101716.06;5053551;28;47208;-84
2021/11/10 07:47:39;;;;;;;;;48.50;40.25;;;;;7.54;67.19;101681.28;5055027;28;45705;-82
2021/11/10 07:50:07;;;;;;;;;43.75;36.00;;;;;7.73;67.26;101706.59;5054805;28;45778;-85
2021/11/10 07:52:32;;;;;;;;;42.00;37.00;;;;;7.72;67.25;101705.75;5053045;28;47583;-84
2021/11/10 07:54:58;;;;;;;;;40.25;37.75;;;;;7.52;67.21;101672.66;5053363;28;45778;-83
2021/11/10 07:57:24;;;;;;;;;43.25;38.50;;;;;7.74;67.24;101701.31;5057201;28;45809;-82
2021/11/10 07:59:49;;;;;;;;;38.75;34.75;;;;;7.77;67.67;101727.28;5065032;28;45806;-84
2021/11/10 08:02:15;;;;;;;;;43.00;39.00;;;;;7.64;67.56;101710.44;5046432;28;46982;-84
2021/11/10 08:04:41;;;;;;;;;47.25;41.00;;;;;7.21;67.67;101632.28;5064885;28;45716;-85
2021/11/10 08:07:06;;;;;;;;;48.25;39.50;;;;;7.65;67.74;101721.72;5063756;28;45606;-83
2021/11/10 08:09:31;;;;;;;;;48.25;36.00;;;;;7.63;67.71;101703.53;5057611;28;45549;-85
2021/11/10 08:11:58;;;;;;;;;43.00;39.25;;;;;7.51;67.45;101686.63;5064353;28;46475;-83
2021/11/10 08:14:23;;;;;;;;;39.75;37.00;;;;;7.26;67.73;101641.63;5067033;28;46182;-82
2021/11/10 08:16:48;;;;;;;;;48.00;39.25;;;;;7.83;67.65;101736.59;5068200;28;45571;-82
2021/11/10 08:19:14;;;;;;;;;43.25;39.00;;;;;7.72;67.64;101717.97;5067676;28;45709;-83
2021/11/10 08:21:40;;;;;;;;;41.50;38.00;;;;;7.86;67.67;101744.31;5063049;28;47630;-84
2021/11/10 08:24:06;;;;;;;;;34.75;28.00;;;;;7.73;67.63;101699.63;5054644;28;47311;-81
2021/11/10 08:26:31;;;;;;;;;36.25;34.00;;;;;7.80;67.53;101701.06;5063687;28;45779;-83
2021/11/10 08:28:57;;;;;;;;;43.00;37.75;;;;;8.03;67.48;101736.63;5064904;28;45716;-83
2021/11/10 08:31:22;;;;;;;;;42.50;39.00;;;;;7.73;67.42;101683.13;5030093;28;47567;-84
2021/11/10 08:33:48;;;;;;;;;42.75;36.00;;;;;8.09;67.25;101741.59;5056157;28;46194;-82
2021/11/10 08:36:13;;;;;;;;;45.75;39.00;;;;;8.20;67.37;101741.97;5055829;28;45649;-83
2021/11/10 08:38:39;;;;;;;;;43.25;37.75;;;;;7.87;67.45;101671.19;5055238;28;45780;-82
2021/11/10 08:41:04;;;;;;;;;42.25;39.00;;;;;8.11;67.69;101720.63;5055848;28;45725;-83
2021/11/10 08:43:31;;;;;;;;;48.25;38.25;;;;;8.19;67.46;101732.44;5047434;28;46027;-83
2021/11/10 08:45:57;;;;;;;;;47.50;39.00;;;;;7.94;67.79;101705.69;5042160;28;45718;-83
2021/11/10 08:48:24;;;;;;;;;45.75;36.50;;;;;7.93;67.89;101704.00;5059568;28;46142;-84
2021/11/10 08:50:50;;;;;;;;;42.25;37.50;;;;;8.18;67.78;101738.56;5060313;28;46560;-84
2021/11/10 08:53:19;;;;;;;;;44.75;35.75;;;;;7.96;67.85;101701.25;5059160;28;45655;-83
2021/11/10 08:55:46;;;;;;;;;48.50;38.25;;;;;8.21;67.83;101748.03;5057185;28;45973;-84
2021/11/10 08:58:11;;;;;;;;;44.75;40.50;;;;;8.22;67.72;101744.50;5039624;28;45708;-75
2021/11/10 09:00:37;;;;;;;;;43.50;40.25;;;;;8.22;67.89;101745.34;5050705;28;46629;-77
2021/11/10 09:03:04;;;;;;;;;44.00;36.50;;;;;8.21;68.19;101728.00;5052224;28;46159;-76
2021/11/10 09:05:30;;;;;;;;;42.00;38.25;;;;;8.36;67.95;101748.28;5051657;28;45938;-78
2021/11/10 09:07:55;;;;;;;;;45.25;39.50;;;;;8.40;67.95;101746.38;5052285;28;45722;-77
2021/11/10 09:10:21;;;;;;;;;42.75;37.00;;;;;8.42;67.91;101744.53;5052322;28;45716;-76
2021/11/10 09:12:49;;;;;;;;;53.25;38.75;;;;;8.49;67.70;101758.16;5051875;28;46176;-79
2021/11/10 09:15:15;;;;;;;;;42.00;38.50;;;;;8.53;67.63;101755.34;5052213;28;45637;-75
2021/11/10 09:17:41;;;;;;;;;48.75;39.00;;;;;8.58;67.70;101750.78;5043791;28;45747;-77
2021/11/10 09:20:16;;;;;;;;;46.50;37.25;;;;;8.61;67.39;101732.34;5052165;28;47490;-77
2021/11/10 09:22:42;;;;;;;;;49.50;40.25;;;;;8.66;67.49;101717.31;5051055;28;46216;-78
2021/11/10 09:25:11;;;;;;;;;48.00;40.50;;;;;8.70;67.39;101713.63;5051687;28;45735;-77
2021/11/10 09:27:39;;;;;;;;;45.75;40.50;;;;;8.73;67.13;101716.13;5052074;28;45969;-77
2021/11/10 09:30:08;;;;;;;;;45.50;39.25;;;;;8.66;67.15;101692.97;5051641;28;46375;-76
2021/11/10 09:32:34;;;;;;;;;50.25;41.25;;;;;8.78;67.45;101706.31;5051635;28;46227;-77
2021/11/10 09:34:59;;;;;;;;;49.75;38.00;;;;;8.87;67.47;101699.81;5044419;28;45892;-77
2021/11/10 09:37:25;;;;;;;;;45.50;40.00;;;;;8.96;67.29;101719.47;5051612;28;45785;-77
2021/11/10 09:39:50;;;;;;;;;46.75;40.25;;;;;8.98;67.40;101710.59;5051917;28;45684;-78
2021/11/10 09:42:16;;;;;;;;;44.25;39.00;;;;;9.11;67.05;101724.81;5051232;28;46872;-76
2021/11/10 09:44:42;;;;;;;;;52.75;39.25;;;;;9.15;66.71;101726.34;5051381;28;45678;-75
2021/11/10 09:47:09;;;;;;;;;51.25;39.00;;;;;9.22;66.54;101719.06;5051622;28;45960;-76
2021/11/10 09:49:34;;;;;;;;;50.25;40.00;;;;;9.30;66.48;101734.38;5051942;28;45681;-78
2021/11/10 09:52:00;;;;;;;;;48.25;38.00;;;;;9.35;66.42;101735.84;5050494;28;46377;-76
2021/11/10 09:54:25;;;;;;;;;55.50;43.25;;;;;9.29;66.39;101733.53;5051471;28;46026;-75
2021/11/10 09:56:54;;;;;;;;;46.75;41.00;;;;;9.37;65.77;101747.09;5051468;28;45842;-76
2021/11/10 09:59:20;;;;;;;;;52.00;39.50;;;;;9.43;66.19;101761.66;5051615;28;47486;-78
2021/11/10 10:01:47;;;;;;;;;47.50;38.00;;;;;9.53;65.73;101768.13;5050966;28;47049;-77
2021/11/10 10:04:13;;;;;;;;;43.50;38.75;;;;;9.60;65.84;101756.47;5051448;28;45712;-78
2021/11/10 10:06:40;;;;;;;;;51.75;39.00;;;;;9.61;65.81;101750.28;5051991;28;45759;-78
2021/11/10 10:09:05;;;;;;;;;48.00;39.75;;;;;9.69;65.29;101771.72;5031842;28;46678;-78
2021/11/10 10:11:33;;;;;;;;;51.75;42.25;;;;;9.78;65.55;101773.00;5051566;28;45621;-78
2021/11/10 10:13:58;;;;;;;;;54.50;41.50;;;;;9.81;65.59;101780.72;5051322;28;45592;-78
2021/11/10 10:16:30;;;;;;;;;45.50;39.75;;;;;9.81;65.37;101785.97;5054103;28;45480;-78
2021/11/10 10:19:16;;;;;;;;;50.00;39.75;;;;;9.85;65.24;101779.66;5056680;28;46401;-78
2021/11/10 10:21:43;;;;;;;;;57.00;40.50;;;;;9.83;65.28;101758.78;5060700;28;46280;-79
2021/11/10 10:24:10;;;;;;;;;42.25;37.50;;;;;9.95;65.18;101758.19;5063794;28;45697;-76
2021/11/10 10:26:37;;;;;;;;;48.25;39.00;;;;;9.97;65.36;101752.88;5064671;28;45660;-77
2021/11/10 10:29:09;;;;;;;;;65.25;45.75;;;;;10.11;64.96;101758.25;5064311;28;46581;-78
2021/11/10 10:31:36;;;;;;;;;43.50;38.25;;;;;10.16;64.63;101747.53;5058754;28;46270;-78
2021/11/10 10:34:07;;;;;;;;;61.50;48.00;;;;;10.15;64.68;101746.69;5058349;28;45798;-79
2021/11/10 10:36:36;;;;;;;;;67.75;51.25;;;;;10.22;64.61;101750.72;5059446;28;45990;-80
2021/11/10 10:39:15;;;;;;;;;62.00;50.50;;;;;10.32;64.30;101744.09;5058623;28;46547;-78
2021/11/10 10:41:44;;;;;;;;;62.75;49.00;;;;;10.37;64.41;101742.06;5057213;28;46141;-79
2021/11/10 10:44:12;;;;;;;;;60.50;49.50;;;;;10.41;63.94;101733.16;5058490;28;45887;-78
2021/11/10 10:46:41;;;;;;;;;58.75;47.50;;;;;10.44;64.05;101732.97;5058588;28;45755;-80
2021/11/10 10:49:17;;;;;;;;;59.75;49.25;;;;;10.49;63.77;101717.00;5058351;28;46551;-79
2021/11/10 10:51:48;;;;;;;;;62.75;50.25;;;;;10.43;63.74;101694.59;5057646;28;46176;-80
2021/11/10 10:54:14;;;;;;;;;65.75;51.00;;;;;10.56;63.85;101704.44;5057549;28;45782;-80
2021/11/10 10:56:43;;;;;;;;;69.75;53.50;;;;;10.69;63.43;101703.69;5040256;28;45696;-78
2021/11/10 10:59:12;;;;;;;;;66.25;54.75;;;;;10.66;63.65;101696.00;5050355;28;46629;-78
2021/11/10 11:01:51;;;;;;;;;72.50;53.75;;;;;10.81;63.40;101710.88;5054551;28;47461;-77
2021/11/10 11:04:20;;;;;;;;;67.25;54.75;;;;;10.84;63.14;101705.50;5057742;28;46104;-78
2021/11/10 11:06:57;;;;;;;;;70.00;55.75;;;;;10.89;62.86;101710.50;5057591;28;45731;-78
2021/11/10 11:09:29;;;;;;;;;78.50;61.00;;;;;10.88;62.37;101701.78;5056951;28;47892;-75
2021/11/10 11:12:05;;;;;;;;;74.50;57.50;;;;;10.85;62.16;101688.81;5057037;28;46527;-76
2021/11/10 11:14:48;;;;;;;;;74.00;57.25;;;;;10.94;62.29;101706.69;5057395;28;45992;-75
2021/11/10 11:17:23;;;;;;;;;73.75;57.75;;;;;11.00;62.04;101702.03;5054396;28;45848;-76